Smitwijs London — PCBI — position and weather

sailwx.info

Track history (hours):
 
Tides and Currents Weather Stations Pressure Air Temp Water Temp Dewpoint Dewpoint Depression Visibility Wind Speed Wind Dir Waves Ship Positions

Smitwijs London

Last reported at 2017-Jun-23 00:01 UTC. Time now 2017-Jun-23 00:11 UTC.
Position N 51°19' E 003°50'.

Length 75 m; beam 16 m.

Type: Tug. MMSI: 244098956.

Date/timePositionNaut miles runAvg speedWind from/ knotsBaromVisibWave heightAir tempDewpointWater temp
2017-Jun-23 00:01N 51°19' E 003°50'0 0.0
2017-Jun-22 23:30N 51°19' E 003°50'0 0.0
2017-Jun-22 23:00N 51°19' E 003°50'0 0.0
2017-Jun-22 22:30N 51°19' E 003°50'0 0.0
2017-Jun-22 22:01N 51°19' E 003°50'0 0.0
2017-Jun-22 21:31N 51°19' E 003°50'0 0.0
2017-Jun-22 21:01N 51°19' E 003°50'0 0.0
2017-Jun-22 20:31N 51°19' E 003°50'0 0.0
2017-Jun-22 20:01N 51°19' E 003°50'0 0.0
2017-Jun-22 19:30N 51°19' E 003°50'0 0.0
2017-Jun-22 19:00N 51°19' E 003°50'0 0.0
2017-Jun-22 18:31N 51°19' E 003°50'0 0.0
2017-Jun-22 18:00N 51°19' E 003°50'0 0.0
2017-Jun-22 17:30N 51°19' E 003°50'0 0.0
2017-Jun-22 17:01N 51°19' E 003°50'0 0.0
2017-Jun-22 16:29N 51°19' E 003°50'0 0.0
2017-Jun-22 16:00N 51°19' E 003°50'1 1.6
2017-Jun-22 15:30N 51°20' E 003°49'2 4.6
2017-Jun-22 15:00N 51°21' E 003°46'2 2.3
2017-Jun-22 14:01N 51°20' E 003°49'0 0.0
2017-Jun-22 13:30N 51°20' E 003°49'0 0.0
2017-Jun-22 13:00N 51°20' E 003°49'1 1.1
2017-Jun-22 12:31N 51°21' E 003°49'1 2.6
2017-Jun-22 12:01N 51°20' E 003°51'0 0.5
2017-Jun-22 11:30N 51°20' E 003°51'2 3.1
2017-Jun-22 11:01N 51°20' E 003°49'0 0.0
2017-Jun-22 10:31N 51°20' E 003°49'0 0.0
2017-Jun-22 10:00N 51°20' E 003°49'0 0.0
2017-Jun-22 09:31N 51°20' E 003°49'0 0.0
2017-Jun-22 09:00N 51°20' E 003°49'2 3.2
2017-Jun-22 08:31N 51°21' E 003°51'0 0.1
2017-Jun-22 08:00N 51°21' E 003°51'2 3.1
2017-Jun-22 07:29N 51°20' E 003°49'0 0.0
2017-Jun-22 07:00N 51°20' E 003°49'0 0.0
2017-Jun-22 06:30N 51°20' E 003°49'0 0.0
2017-Jun-22 06:00N 51°20' E 003°49'0 0.0
2017-Jun-22 05:30N 51°20' E 003°49'0 0.7
2017-Jun-22 05:00N 51°20' E 003°49'0 0.1
2017-Jun-22 04:30N 51°20' E 003°49'0 0.9
2017-Jun-22 04:00N 51°19' E 003°50'0 0.0
2017-Jun-22 03:30N 51°19' E 003°50'0 0.0
2017-Jun-22 03:00N 51°19' E 003°50'0 0.0
2017-Jun-22 02:30N 51°19' E 003°50'0 0.0
2017-Jun-22 02:00N 51°19' E 003°50'0 0.0
2017-Jun-22 01:30N 51°19' E 003°50'0 0.0
2017-Jun-22 01:00N 51°19' E 003°50'0 0.0
2017-Jun-22 00:30N 51°19' E 003°50'0 0.0
2017-Jun-22 00:00N 51°19' E 003°50'0 0.0
2017-Jun-21 23:30N 51°19' E 003°50'0 0.0
2017-Jun-21 23:00N 51°19' E 003°50'0 0.0
2017-Jun-21 22:30N 51°19' E 003°50'0 0.0
2017-Jun-21 22:00N 51°19' E 003°50'0 0.0
2017-Jun-21 21:30N 51°19' E 003°50'0 0.0
2017-Jun-21 21:00N 51°19' E 003°50'0 0.0
2017-Jun-21 20:30N 51°19' E 003°50'0 0.0
2017-Jun-21 20:00N 51°19' E 003°50'0 0.0
2017-Jun-21 19:30N 51°19' E 003°50'0 0.0
2017-Jun-21 19:00N 51°19' E 003°50'0 0.0
2017-Jun-21 18:30N 51°19' E 003°50'0 0.0
2017-Jun-21 18:00N 51°19' E 003°50'0 0.0
2017-Jun-21 17:30N 51°19' E 003°50'0 0.0
2017-Jun-21 17:00N 51°19' E 003°50'0 0.0
2017-Jun-21 16:30N 51°19' E 003°50'0 0.0
2017-Jun-21 16:00N 51°19' E 003°50'0 0.0
2017-Jun-21 15:30N 51°19' E 003°50'0 0.0
2017-Jun-21 15:00N 51°19' E 003°50'0 0.0
2017-Jun-21 14:00N 51°19' E 003°50'0 0.0
2017-Jun-21 13:30N 51°19' E 003°50'0 0.0
2017-Jun-21 13:00N 51°19' E 003°50'0 0.0
2017-Jun-21 12:30N 51°19' E 003°50'0 0.0
2017-Jun-21 12:00N 51°19' E 003°50'0 0.0
2017-Jun-21 11:30N 51°19' E 003°50'0 0.0
2017-Jun-21 11:00N 51°19' E 003°50'0 0.0
2017-Jun-21 10:30N 51°19' E 003°50'0 0.2
2017-Jun-21 10:01N 51°19' E 003°50'1 1.2
2017-Jun-21 09:30N 51°19' E 003°50'0 0.2
2017-Jun-21 09:01N 51°19' E 003°50'1 1.3
2017-Jun-21 08:30N 51°19' E 003°50'0 0.0
2017-Jun-21 08:00N 51°19' E 003°50'0 0.0
2017-Jun-21 07:30N 51°19' E 003°50'0 0.0
2017-Jun-21 07:00N 51°19' E 003°50'0 0.0
2017-Jun-21 06:30N 51°19' E 003°50'0 0.0
2017-Jun-21 06:00N 51°19' E 003°50'0 0.0
2017-Jun-21 05:30N 51°19' E 003°50'0 0.0
2017-Jun-21 05:00N 51°19' E 003°50'0 0.0
2017-Jun-21 04:30N 51°19' E 003°50'0 0.0
2017-Jun-21 04:00N 51°19' E 003°50'0 0.0
2017-Jun-21 03:30N 51°19' E 003°50'0 0.0
2017-Jun-21 03:00N 51°19' E 003°50'0 0.0
2017-Jun-21 02:30N 51°19' E 003°50'0 0.0
2017-Jun-21 02:00N 51°19' E 003°50'0 0.0
2017-Jun-21 01:30N 51°19' E 003°50'0 0.0
2017-Jun-21 01:00N 51°19' E 003°50'0 0.0
2017-Jun-21 00:30N 51°19' E 003°50'0 0.0
2017-Jun-21 00:00N 51°19' E 003°50'0 0.0
2017-Jun-20 23:30N 51°19' E 003°50'0 0.0
2017-Jun-20 23:00N 51°19' E 003°50'0 0.0
2017-Jun-20 22:30N 51°19' E 003°50'0 0.0
2017-Jun-20 22:00N 51°19' E 003°50'0 0.0
2017-Jun-20 21:30N 51°19' E 003°50'0 0.0
2017-Jun-20 21:00N 51°19' E 003°50'0 0.0
2017-Jun-20 20:30N 51°19' E 003°50'0 0.0
2017-Jun-20 20:00N 51°19' E 003°50'0 0.0
2017-Jun-20 19:30N 51°19' E 003°50'0 0.0
2017-Jun-20 19:00N 51°19' E 003°50'0 0.0
2017-Jun-20 18:30N 51°19' E 003°50'0 0.0
2017-Jun-20 18:00N 51°19' E 003°50'0 0.0
2017-Jun-20 17:30N 51°19' E 003°50'0 0.0
2017-Jun-20 17:00N 51°19' E 003°50'0 0.0
2017-Jun-20 16:30N 51°19' E 003°50'0 0.0
2017-Jun-20 16:00N 51°19' E 003°50'0 0.0
2017-Jun-20 15:30N 51°19' E 003°50'0 0.0
2017-Jun-20 15:00N 51°19' E 003°50'0 0.0
2017-Jun-20 14:00N 51°19' E 003°50'0 0.0
2017-Jun-20 13:30N 51°19' E 003°50'0 0.0
2017-Jun-20 13:00N 51°19' E 003°50'0 0.0
2017-Jun-20 12:30N 51°19' E 003°50'0 0.0
2017-Jun-20 12:01N 51°19' E 003°50'0 0.0
2017-Jun-20 11:30N 51°19' E 003°50'0 0.0
2017-Jun-20 11:00N 51°19' E 003°50'0 0.0
2017-Jun-20 10:30N 51°19' E 003°50'0 0.0
2017-Jun-20 10:00N 51°19' E 003°50'0 0.0
2017-Jun-20 09:30N 51°19' E 003°50'0 0.0
2017-Jun-20 08:59N 51°19' E 003°50'0 0.0
2017-Jun-20 08:30N 51°19' E 003°50'0 0.0
2017-Jun-20 08:00N 51°19' E 003°50'0 0.0
2017-Jun-20 07:30N 51°19' E 003°50'0 0.0
2017-Jun-20 07:00N 51°19' E 003°50'0 0.0
2017-Jun-20 06:30N 51°19' E 003°50'0 0.0
2017-Jun-20 06:00N 51°19' E 003°50'0 0.0
2017-Jun-20 05:30N 51°19' E 003°50'0 0.0
2017-Jun-20 05:00N 51°19' E 003°50'0 0.0
2017-Jun-20 04:30N 51°19' E 003°50'0 0.0
2017-Jun-20 04:00N 51°19' E 003°50'0 0.0
2017-Jun-20 03:30N 51°19' E 003°50'0 0.0
2017-Jun-20 03:00N 51°19' E 003°50'0 0.0
2017-Jun-20 02:30N 51°19' E 003°50'0 0.0
2017-Jun-20 02:00N 51°19' E 003°50'0 0.0
2017-Jun-20 01:30N 51°19' E 003°50'0 0.0
2017-Jun-20 01:00N 51°19' E 003°50'0 0.0
2017-Jun-20 00:30N 51°19' E 003°50'0 0.0
2017-Jun-20 00:00N 51°19' E 003°50'0 0.0
2017-Jun-19 23:30N 51°19' E 003°50'0 0.0
2017-Jun-19 23:00N 51°19' E 003°50'0 0.0
2017-Jun-19 22:30N 51°19' E 003°50'0 0.0
2017-Jun-19 21:59N 51°19' E 003°50'0 0.0
2017-Jun-19 21:30N 51°19' E 003°50'0 0.0
2017-Jun-19 21:00N 51°19' E 003°50'0 0.0
2017-Jun-19 20:30N 51°19' E 003°50'0 0.0
2017-Jun-19 20:00N 51°19' E 003°50'0 0.0
2017-Jun-19 19:30N 51°19' E 003°50'0 0.0
2017-Jun-19 19:00N 51°19' E 003°50'0 0.0
2017-Jun-19 18:30N 51°19' E 003°50'0 0.0
2017-Jun-19 18:00N 51°19' E 003°50'0 0.0
2017-Jun-19 17:30N 51°19' E 003°50'0 0.0
2017-Jun-19 17:00N 51°19' E 003°50'0 0.0
2017-Jun-19 16:30N 51°19' E 003°50'0 0.0
2017-Jun-19 16:00N 51°19' E 003°50'0 0.0
2017-Jun-19 15:30N 51°19' E 003°50'0 0.0
2017-Jun-19 15:00N 51°19' E 003°50'0 0.0
2017-Jun-19 13:59N 51°19' E 003°50'0 0.0
2017-Jun-19 13:30N 51°19' E 003°50'0 0.0
2017-Jun-19 13:00N 51°19' E 003°50'0 0.0
2017-Jun-19 12:30N 51°19' E 003°50'0 0.0
2017-Jun-19 12:00N 51°19' E 003°50'0 0.0
2017-Jun-19 11:30N 51°19' E 003°50'0 0.0
2017-Jun-19 11:00N 51°19' E 003°50'0 0.0
2017-Jun-19 10:30N 51°19' E 003°50'0 0.0
2017-Jun-19 10:00N 51°19' E 003°50'0 0.0
2017-Jun-19 09:30N 51°19' E 003°50'0 0.0
2017-Jun-19 09:00N 51°19' E 003°50'0 0.0
2017-Jun-19 08:30N 51°19' E 003°50'0 0.0
2017-Jun-19 08:00N 51°19' E 003°50'0 0.0
2017-Jun-19 07:30N 51°19' E 003°50'0 0.0
2017-Jun-19 07:00N 51°19' E 003°50'0 0.0
2017-Jun-19 06:30N 51°19' E 003°50'0 0.0
2017-Jun-19 06:00N 51°19' E 003°50'0 0.0
2017-Jun-19 05:30N 51°19' E 003°50'0 0.0
2017-Jun-19 05:00N 51°19' E 003°50'0 0.0
2017-Jun-19 04:30N 51°19' E 003°50'0 0.0
2017-Jun-19 04:00N 51°19' E 003°50'0 0.0
2017-Jun-19 03:30N 51°19' E 003°50'0 0.0
2017-Jun-19 03:00N 51°19' E 003°50'0 0.0
2017-Jun-19 02:30N 51°19' E 003°50'0 0.0
2017-Jun-19 02:00N 51°19' E 003°50'0 0.0
2017-Jun-19 01:30N 51°19' E 003°50'0 0.0
2017-Jun-19 01:00N 51°19' E 003°50'0 0.0
2017-Jun-19 00:30N 51°19' E 003°50'0 0.0
2017-Jun-19 00:00N 51°19' E 003°50'0 0.0
2017-Jun-18 23:30N 51°19' E 003°50'0 0.0
2017-Jun-18 23:00N 51°19' E 003°50'0 0.0
2017-Jun-18 22:30N 51°19' E 003°50'0 0.0
2017-Jun-18 22:00N 51°19' E 003°50'0 0.0
2017-Jun-18 21:30N 51°19' E 003°50'0 0.0
2017-Jun-18 21:00N 51°19' E 003°50'0 0.0
2017-Jun-18 20:30N 51°19' E 003°50'0 0.0
2017-Jun-18 20:00N 51°19' E 003°50'0 0.0
2017-Jun-18 19:30N 51°19' E 003°50'0 0.0
2017-Jun-18 19:00N 51°19' E 003°50'0 0.0
2017-Jun-18 18:30N 51°19' E 003°50'0 0.0
2017-Jun-18 18:00N 51°19' E 003°50'0 0.0
2017-Jun-18 17:30N 51°19' E 003°50'0 0.0
2017-Jun-18 17:00N 51°19' E 003°50'0 0.0
2017-Jun-18 16:30N 51°19' E 003°50'0 0.0
2017-Jun-18 16:00N 51°19' E 003°50'0 0.0
2017-Jun-18 15:30N 51°19' E 003°50'0 0.0
2017-Jun-18 15:00N 51°19' E 003°50'0 0.0
2017-Jun-18 14:30N 51°19' E 003°50'0 0.0
2017-Jun-18 14:00N 51°19' E 003°50'0 0.0
2017-Jun-18 13:30N 51°19' E 003°50'0 0.0
2017-Jun-18 13:00N 51°19' E 003°50'0 0.0
2017-Jun-18 12:29N 51°19' E 003°50'0 0.0
2017-Jun-18 12:00N 51°19' E 003°50'0 0.0
2017-Jun-18 11:30N 51°19' E 003°50'0 0.0
2017-Jun-18 11:00N 51°19' E 003°50'0 0.0
2017-Jun-18 10:30N 51°19' E 003°50'0 0.0
2017-Jun-18 10:00N 51°19' E 003°50'0 0.0
2017-Jun-18 09:30N 51°19' E 003°50'0 0.0
2017-Jun-18 09:00N 51°19' E 003°50'0 0.0
2017-Jun-18 08:30N 51°19' E 003°50'0 0.0
2017-Jun-18 08:00N 51°19' E 003°50'0 0.0
2017-Jun-18 07:30N 51°19' E 003°50'0 0.0
2017-Jun-18 07:00N 51°19' E 003°50'0 0.0
2017-Jun-18 06:30N 51°19' E 003°50'0 0.0
2017-Jun-18 06:00N 51°19' E 003°50'0 0.0
2017-Jun-18 05:30N 51°19' E 003°50'0 0.0
2017-Jun-18 05:00N 51°19' E 003°50'0 0.0
2017-Jun-18 04:30N 51°19' E 003°50'0 0.0
2017-Jun-18 04:00N 51°19' E 003°50'0 0.0
2017-Jun-18 03:30N 51°19' E 003°50'0 0.0
2017-Jun-18 03:00N 51°19' E 003°50'0 0.0
2017-Jun-18 02:30N 51°19' E 003°50'0 0.0
2017-Jun-18 02:00N 51°19' E 003°50'0 0.0
2017-Jun-18 01:30N 51°19' E 003°50'0 0.0
2017-Jun-18 01:00N 51°19' E 003°50'0 0.0
2017-Jun-18 00:30N 51°19' E 003°50'0 0.0
2017-Jun-18 00:00N 51°19' E 003°50'0 0.0
2017-Jun-17 23:30N 51°19' E 003°50'0 0.0
2017-Jun-17 23:00N 51°19' E 003°50'0 0.0
2017-Jun-17 22:30N 51°19' E 003°50'0 0.0
2017-Jun-17 22:00N 51°19' E 003°50'0 0.0
2017-Jun-17 21:30N 51°19' E 003°50'0 0.0
2017-Jun-17 21:00N 51°19' E 003°50'0 0.0
2017-Jun-17 20:30N 51°19' E 003°50'0 0.0
2017-Jun-17 20:00N 51°19' E 003°50'0 0.0
2017-Jun-17 19:30N 51°19' E 003°50'0 0.0
2017-Jun-17 19:00N 51°19' E 003°50'0 0.0
2017-Jun-17 18:30N 51°19' E 003°50'0 0.0
2017-Jun-17 18:00N 51°19' E 003°50'0 0.0
2017-Jun-17 17:30N 51°19' E 003°50'0 0.0
2017-Jun-17 17:00N 51°19' E 003°50'0 0.0
2017-Jun-17 16:30N 51°19' E 003°50'0 0.0
2017-Jun-17 16:00N 51°19' E 003°50'0 0.0
2017-Jun-17 15:30N 51°19' E 003°50'0 0.0
2017-Jun-17 15:00N 51°19' E 003°50'0 0.0
2017-Jun-17 14:30N 51°19' E 003°50'0 0.0
2017-Jun-17 13:30N 51°19' E 003°50'0 0.0
2017-Jun-17 13:00N 51°19' E 003°50'0 0.0
2017-Jun-17 12:30N 51°19' E 003°50'0 0.0
2017-Jun-17 12:00N 51°19' E 003°50'0 0.0
2017-Jun-17 11:30N 51°19' E 003°50'0 0.0
2017-Jun-17 11:00N 51°19' E 003°50'0 0.0
2017-Jun-17 10:30N 51°19' E 003°50'0 0.0
2017-Jun-17 10:00N 51°19' E 003°50'0 0.0
2017-Jun-17 09:30N 51°19' E 003°50'0 0.0
2017-Jun-17 09:00N 51°19' E 003°50'0 0.0
2017-Jun-17 08:30N 51°19' E 003°50'0 0.0
2017-Jun-17 08:00N 51°19' E 003°50'0 0.0
2017-Jun-17 07:30N 51°19' E 003°50'0 0.0
2017-Jun-17 07:00N 51°19' E 003°50'0 0.0
2017-Jun-17 06:30N 51°19' E 003°50'0 0.0
2017-Jun-17 06:00N 51°19' E 003°50'0 0.0
2017-Jun-17 05:30N 51°19' E 003°50'0 0.0
2017-Jun-17 05:00N 51°19' E 003°50'0 0.0
2017-Jun-17 04:30N 51°19' E 003°50'0 0.0
2017-Jun-17 04:00N 51°19' E 003°50'0 0.0
2017-Jun-17 03:30N 51°19' E 003°50'0 0.0
2017-Jun-17 03:00N 51°19' E 003°50'0 0.0
2017-Jun-17 02:30N 51°19' E 003°50'0 0.0
2017-Jun-17 02:00N 51°19' E 003°50'0 0.0
2017-Jun-17 01:30N 51°19' E 003°50'0 0.0
2017-Jun-17 01:00N 51°19' E 003°50'0 0.0
2017-Jun-17 00:30N 51°19' E 003°50'0 0.0
2017-Jun-17 00:00N 51°19' E 003°50'0 0.0
2017-Jun-16 23:30N 51°19' E 003°50'0 0.7
2017-Jun-16 23:00N 51°20' E 003°49'1 2.8
2017-Jun-16 22:30N 51°21' E 003°48'510.0
2017-Jun-16 22:00N 51°24' E 003°42'510.0
2017-Jun-16 21:30N 51°26' E 003°34'5 9.4
2017-Jun-16 21:00N 51°30' E 003°29'5 9.5
2017-Jun-16 20:31N 51°33' E 003°25'510.6
2017-Jun-16 20:00N 51°38' E 003°21'510.6
2017-Jun-16 19:31N 51°43' E 003°18'510.8
2017-Jun-16 19:00N 51°48' E 003°17'510.4
2017-Jun-16 18:30N 51°53' E 003°18'510.1
2017-Jun-16 18:00N 51°58' E 003°20'510.8
2017-Jun-16 17:30N 52°03' E 003°25'1017.8
2017-Jun-16 16:58N 52°03' E 003°41'0 0.0
2017-Jun-16 16:30N 52°03' E 003°41'4 8.1
2017-Jun-16 16:00N 52°02' E 003°47'510.7
2017-Jun-16 15:31N 52°01' E 003°56'510.9
2017-Jun-16 15:01N 51°59' E 004°04'1111.4
2017-Jun-16 14:01N 51°54' E 004°20'2 3.7
2017-Jun-16 13:30N 51°54' E 004°23'0 0.0
2017-Jun-16 13:00N 51°54' E 004°23'0 0.0
2017-Jun-16 12:30N 51°54' E 004°23'0 0.2
2017-Jun-16 12:00N 51°54' E 004°23'1 1.1
2017-Jun-16 11:30N 51°54' E 004°23'0 0.8
2017-Jun-16 11:00N 51°54' E 004°23'0 0.0
2017-Jun-16 10:30N 51°54' E 004°23'0 0.0
2017-Jun-16 10:00N 51°54' E 004°23'0 0.0
2017-Jun-16 09:30N 51°54' E 004°23'0 0.0
2017-Jun-16 09:00N 51°54' E 004°23'0 0.0
2017-Jun-16 08:30N 51°54' E 004°23'0 0.0
2017-Jun-16 08:00N 51°54' E 004°23'0 0.0
2017-Jun-16 07:30N 51°54' E 004°23'  
Track history (hours):
 
Tides and Currents Weather Stations Pressure Air Temp Water Temp Dewpoint Dewpoint Depression Visibility Wind Speed Wind Dir Waves Ship Positions

Smitwijs London

Last reported at 2017-Jun-23 00:01 UTC. Time now 2017-Jun-23 00:11 UTC.
Position N 51°19' E 003°50'.

Length 75 m; beam 16 m.

Type: Tug. MMSI: 244098956.

Date/timePositionNaut miles runAvg speedWind from/ knotsBaromVisibWave heightAir tempDewpointWater temp
2017-Jun-23 00:01N 51°19' E 003°50'0 0.0
2017-Jun-22 23:30N 51°19' E 003°50'0 0.0
2017-Jun-22 23:00N 51°19' E 003°50'0 0.0
2017-Jun-22 22:30N 51°19' E 003°50'0 0.0
2017-Jun-22 22:01N 51°19' E 003°50'0 0.0
2017-Jun-22 21:31N 51°19' E 003°50'0 0.0
2017-Jun-22 21:01N 51°19' E 003°50'0 0.0
2017-Jun-22 20:31N 51°19' E 003°50'0 0.0
2017-Jun-22 20:01N 51°19' E 003°50'0 0.0
2017-Jun-22 19:30N 51°19' E 003°50'0 0.0
2017-Jun-22 19:00N 51°19' E 003°50'0 0.0
2017-Jun-22 18:31N 51°19' E 003°50'0 0.0
2017-Jun-22 18:00N 51°19' E 003°50'0 0.0
2017-Jun-22 17:30N 51°19' E 003°50'0 0.0
2017-Jun-22 17:01N 51°19' E 003°50'0 0.0
2017-Jun-22 16:29N 51°19' E 003°50'0 0.0
2017-Jun-22 16:00N 51°19' E 003°50'1 1.6
2017-Jun-22 15:30N 51°20' E 003°49'2 4.6
2017-Jun-22 15:00N 51°21' E 003°46'2 2.3
2017-Jun-22 14:01N 51°20' E 003°49'0 0.0
2017-Jun-22 13:30N 51°20' E 003°49'0 0.0
2017-Jun-22 13:00N 51°20' E 003°49'1 1.1
2017-Jun-22 12:31N 51°21' E 003°49'1 2.6
2017-Jun-22 12:01N 51°20' E 003°51'0 0.5
2017-Jun-22 11:30N 51°20' E 003°51'2 3.1
2017-Jun-22 11:01N 51°20' E 003°49'0 0.0
2017-Jun-22 10:31N 51°20' E 003°49'0 0.0
2017-Jun-22 10:00N 51°20' E 003°49'0 0.0
2017-Jun-22 09:31N 51°20' E 003°49'0 0.0
2017-Jun-22 09:00N 51°20' E 003°49'2 3.2
2017-Jun-22 08:31N 51°21' E 003°51'0 0.1
2017-Jun-22 08:00N 51°21' E 003°51'2 3.1
2017-Jun-22 07:29N 51°20' E 003°49'0 0.0
2017-Jun-22 07:00N 51°20' E 003°49'0 0.0
2017-Jun-22 06:30N 51°20' E 003°49'0 0.0
2017-Jun-22 06:00N 51°20' E 003°49'0 0.0
2017-Jun-22 05:30N 51°20' E 003°49'0 0.7
2017-Jun-22 05:00N 51°20' E 003°49'0 0.1
2017-Jun-22 04:30N 51°20' E 003°49'0 0.9
2017-Jun-22 04:00N 51°19' E 003°50'0 0.0
2017-Jun-22 03:30N 51°19' E 003°50'0 0.0
2017-Jun-22 03:00N 51°19' E 003°50'0 0.0
2017-Jun-22 02:30N 51°19' E 003°50'0 0.0
2017-Jun-22 02:00N 51°19' E 003°50'0 0.0
2017-Jun-22 01:30N 51°19' E 003°50'0 0.0
2017-Jun-22 01:00N 51°19' E 003°50'0 0.0
2017-Jun-22 00:30N 51°19' E 003°50'0 0.0
2017-Jun-22 00:00N 51°19' E 003°50'0 0.0
2017-Jun-21 23:30N 51°19' E 003°50'0 0.0
2017-Jun-21 23:00N 51°19' E 003°50'0 0.0
2017-Jun-21 22:30N 51°19' E 003°50'0 0.0
2017-Jun-21 22:00N 51°19' E 003°50'0 0.0
2017-Jun-21 21:30N 51°19' E 003°50'0 0.0
2017-Jun-21 21:00N 51°19' E 003°50'0 0.0
2017-Jun-21 20:30N 51°19' E 003°50'0 0.0
2017-Jun-21 20:00N 51°19' E 003°50'0 0.0
2017-Jun-21 19:30N 51°19' E 003°50'0 0.0
2017-Jun-21 19:00N 51°19' E 003°50'0 0.0
2017-Jun-21 18:30N 51°19' E 003°50'0 0.0
2017-Jun-21 18:00N 51°19' E 003°50'0 0.0
2017-Jun-21 17:30N 51°19' E 003°50'0 0.0
2017-Jun-21 17:00N 51°19' E 003°50'0 0.0
2017-Jun-21 16:30N 51°19' E 003°50'0 0.0
2017-Jun-21 16:00N 51°19' E 003°50'0 0.0
2017-Jun-21 15:30N 51°19' E 003°50'0 0.0
2017-Jun-21 15:00N 51°19' E 003°50'0 0.0
2017-Jun-21 14:00N 51°19' E 003°50'0 0.0
2017-Jun-21 13:30N 51°19' E 003°50'0 0.0
2017-Jun-21 13:00N 51°19' E 003°50'0 0.0
2017-Jun-21 12:30N 51°19' E 003°50'0 0.0
2017-Jun-21 12:00N 51°19' E 003°50'0 0.0
2017-Jun-21 11:30N 51°19' E 003°50'0 0.0
2017-Jun-21 11:00N 51°19' E 003°50'0 0.0
2017-Jun-21 10:30N 51°19' E 003°50'0 0.2
2017-Jun-21 10:01N 51°19' E 003°50'1 1.2
2017-Jun-21 09:30N 51°19' E 003°50'0 0.2
2017-Jun-21 09:01N 51°19' E 003°50'1 1.3
2017-Jun-21 08:30N 51°19' E 003°50'0 0.0
2017-Jun-21 08:00N 51°19' E 003°50'0 0.0
2017-Jun-21 07:30N 51°19' E 003°50'0 0.0
2017-Jun-21 07:00N 51°19' E 003°50'0 0.0
2017-Jun-21 06:30N 51°19' E 003°50'0 0.0
2017-Jun-21 06:00N 51°19' E 003°50'0 0.0
2017-Jun-21 05:30N 51°19' E 003°50'0 0.0
2017-Jun-21 05:00N 51°19' E 003°50'0 0.0
2017-Jun-21 04:30N 51°19' E 003°50'0 0.0
2017-Jun-21 04:00N 51°19' E 003°50'0 0.0
2017-Jun-21 03:30N 51°19' E 003°50'0 0.0
2017-Jun-21 03:00N 51°19' E 003°50'0 0.0
2017-Jun-21 02:30N 51°19' E 003°50'0 0.0
2017-Jun-21 02:00N 51°19' E 003°50'0 0.0
2017-Jun-21 01:30N 51°19' E 003°50'0 0.0
2017-Jun-21 01:00N 51°19' E 003°50'0 0.0
2017-Jun-21 00:30N 51°19' E 003°50'0 0.0
2017-Jun-21 00:00N 51°19' E 003°50'0 0.0
2017-Jun-20 23:30N 51°19' E 003°50'0 0.0
2017-Jun-20 23:00N 51°19' E 003°50'0 0.0
2017-Jun-20 22:30N 51°19' E 003°50'0 0.0
2017-Jun-20 22:00N 51°19' E 003°50'0 0.0
2017-Jun-20 21:30N 51°19' E 003°50'0 0.0
2017-Jun-20 21:00N 51°19' E 003°50'0 0.0
2017-Jun-20 20:30N 51°19' E 003°50'0 0.0
2017-Jun-20 20:00N 51°19' E 003°50'0 0.0
2017-Jun-20 19:30N 51°19' E 003°50'0 0.0
2017-Jun-20 19:00N 51°19' E 003°50'0 0.0
2017-Jun-20 18:30N 51°19' E 003°50'0 0.0
2017-Jun-20 18:00N 51°19' E 003°50'0 0.0
2017-Jun-20 17:30N 51°19' E 003°50'0 0.0
2017-Jun-20 17:00N 51°19' E 003°50'0 0.0
2017-Jun-20 16:30N 51°19' E 003°50'0 0.0
2017-Jun-20 16:00N 51°19' E 003°50'0 0.0
2017-Jun-20 15:30N 51°19' E 003°50'0 0.0
2017-Jun-20 15:00N 51°19' E 003°50'0 0.0
2017-Jun-20 14:00N 51°19' E 003°50'0 0.0
2017-Jun-20 13:30N 51°19' E 003°50'0 0.0
2017-Jun-20 13:00N 51°19' E 003°50'0 0.0
2017-Jun-20 12:30N 51°19' E 003°50'0 0.0
2017-Jun-20 12:01N 51°19' E 003°50'0 0.0
2017-Jun-20 11:30N 51°19' E 003°50'0 0.0
2017-Jun-20 11:00N 51°19' E 003°50'0 0.0
2017-Jun-20 10:30N 51°19' E 003°50'0 0.0
2017-Jun-20 10:00N 51°19' E 003°50'0 0.0
2017-Jun-20 09:30N 51°19' E 003°50'0 0.0
2017-Jun-20 08:59N 51°19' E 003°50'0 0.0
2017-Jun-20 08:30N 51°19' E 003°50'0 0.0
2017-Jun-20 08:00N 51°19' E 003°50'0 0.0
2017-Jun-20 07:30N 51°19' E 003°50'0 0.0
2017-Jun-20 07:00N 51°19' E 003°50'0 0.0
2017-Jun-20 06:30N 51°19' E 003°50'0 0.0
2017-Jun-20 06:00N 51°19' E 003°50'0 0.0
2017-Jun-20 05:30N 51°19' E 003°50'0 0.0
2017-Jun-20 05:00N 51°19' E 003°50'0 0.0
2017-Jun-20 04:30N 51°19' E 003°50'0 0.0
2017-Jun-20 04:00N 51°19' E 003°50'0 0.0
2017-Jun-20 03:30N 51°19' E 003°50'0 0.0
2017-Jun-20 03:00N 51°19' E 003°50'0 0.0
2017-Jun-20 02:30N 51°19' E 003°50'0 0.0
2017-Jun-20 02:00N 51°19' E 003°50'0 0.0
2017-Jun-20 01:30N 51°19' E 003°50'0 0.0
2017-Jun-20 01:00N 51°19' E 003°50'0 0.0
2017-Jun-20 00:30N 51°19' E 003°50'0 0.0
2017-Jun-20 00:00N 51°19' E 003°50'0 0.0
2017-Jun-19 23:30N 51°19' E 003°50'0 0.0
2017-Jun-19 23:00N 51°19' E 003°50'0 0.0
2017-Jun-19 22:30N 51°19' E 003°50'0 0.0
2017-Jun-19 21:59N 51°19' E 003°50'0 0.0
2017-Jun-19 21:30N 51°19' E 003°50'0 0.0
2017-Jun-19 21:00N 51°19' E 003°50'0 0.0
2017-Jun-19 20:30N 51°19' E 003°50'0 0.0
2017-Jun-19 20:00N 51°19' E 003°50'0 0.0
2017-Jun-19 19:30N 51°19' E 003°50'0 0.0
2017-Jun-19 19:00N 51°19' E 003°50'0 0.0
2017-Jun-19 18:30N 51°19' E 003°50'0 0.0
2017-Jun-19 18:00N 51°19' E 003°50'0 0.0
2017-Jun-19 17:30N 51°19' E 003°50'0 0.0
2017-Jun-19 17:00N 51°19' E 003°50'0 0.0
2017-Jun-19 16:30N 51°19' E 003°50'0 0.0
2017-Jun-19 16:00N 51°19' E 003°50'0 0.0
2017-Jun-19 15:30N 51°19' E 003°50'0 0.0
2017-Jun-19 15:00N 51°19' E 003°50'0 0.0
2017-Jun-19 13:59N 51°19' E 003°50'0 0.0
2017-Jun-19 13:30N 51°19' E 003°50'0 0.0
2017-Jun-19 13:00N 51°19' E 003°50'0 0.0
2017-Jun-19 12:30N 51°19' E 003°50'0 0.0
2017-Jun-19 12:00N 51°19' E 003°50'0 0.0
2017-Jun-19 11:30N 51°19' E 003°50'0 0.0
2017-Jun-19 11:00N 51°19' E 003°50'0 0.0
2017-Jun-19 10:30N 51°19' E 003°50'0 0.0
2017-Jun-19 10:00N 51°19' E 003°50'0 0.0
2017-Jun-19 09:30N 51°19' E 003°50'0 0.0
2017-Jun-19 09:00N 51°19' E 003°50'0 0.0
2017-Jun-19 08:30N 51°19' E 003°50'0 0.0
2017-Jun-19 08:00N 51°19' E 003°50'0 0.0
2017-Jun-19 07:30N 51°19' E 003°50'0 0.0
2017-Jun-19 07:00N 51°19' E 003°50'0 0.0
2017-Jun-19 06:30N 51°19' E 003°50'0 0.0
2017-Jun-19 06:00N 51°19' E 003°50'0 0.0
2017-Jun-19 05:30N 51°19' E 003°50'0 0.0
2017-Jun-19 05:00N 51°19' E 003°50'0 0.0
2017-Jun-19 04:30N 51°19' E 003°50'0 0.0
2017-Jun-19 04:00N 51°19' E 003°50'0 0.0
2017-Jun-19 03:30N 51°19' E 003°50'0 0.0
2017-Jun-19 03:00N 51°19' E 003°50'0 0.0
2017-Jun-19 02:30N 51°19' E 003°50'0 0.0
2017-Jun-19 02:00N 51°19' E 003°50'0 0.0
2017-Jun-19 01:30N 51°19' E 003°50'0 0.0
2017-Jun-19 01:00N 51°19' E 003°50'0 0.0
2017-Jun-19 00:30N 51°19' E 003°50'0 0.0
2017-Jun-19 00:00N 51°19' E 003°50'0 0.0
2017-Jun-18 23:30N 51°19' E 003°50'0 0.0
2017-Jun-18 23:00N 51°19' E 003°50'0 0.0
2017-Jun-18 22:30N 51°19' E 003°50'0 0.0
2017-Jun-18 22:00N 51°19' E 003°50'0 0.0
2017-Jun-18 21:30N 51°19' E 003°50'0 0.0
2017-Jun-18 21:00N 51°19' E 003°50'0 0.0
2017-Jun-18 20:30N 51°19' E 003°50'0 0.0
2017-Jun-18 20:00N 51°19' E 003°50'0 0.0
2017-Jun-18 19:30N 51°19' E 003°50'0 0.0
2017-Jun-18 19:00N 51°19' E 003°50'0 0.0
2017-Jun-18 18:30N 51°19' E 003°50'0 0.0
2017-Jun-18 18:00N 51°19' E 003°50'0 0.0
2017-Jun-18 17:30N 51°19' E 003°50'0 0.0
2017-Jun-18 17:00N 51°19' E 003°50'0 0.0
2017-Jun-18 16:30N 51°19' E 003°50'0 0.0
2017-Jun-18 16:00N 51°19' E 003°50'0 0.0
2017-Jun-18 15:30N 51°19' E 003°50'0 0.0
2017-Jun-18 15:00N 51°19' E 003°50'0 0.0
2017-Jun-18 14:30N 51°19' E 003°50'0 0.0
2017-Jun-18 14:00N 51°19' E 003°50'0 0.0
2017-Jun-18 13:30N 51°19' E 003°50'0 0.0
2017-Jun-18 13:00N 51°19' E 003°50'0 0.0
2017-Jun-18 12:29N 51°19' E 003°50'0 0.0
2017-Jun-18 12:00N 51°19' E 003°50'0 0.0
2017-Jun-18 11:30N 51°19' E 003°50'0 0.0
2017-Jun-18 11:00N 51°19' E 003°50'0 0.0
2017-Jun-18 10:30N 51°19' E 003°50'0 0.0
2017-Jun-18 10:00N 51°19' E 003°50'0 0.0
2017-Jun-18 09:30N 51°19' E 003°50'0 0.0
2017-Jun-18 09:00N 51°19' E 003°50'0 0.0
2017-Jun-18 08:30N 51°19' E 003°50'0 0.0
2017-Jun-18 08:00N 51°19' E 003°50'0 0.0
2017-Jun-18 07:30N 51°19' E 003°50'0 0.0
2017-Jun-18 07:00N 51°19' E 003°50'0 0.0
2017-Jun-18 06:30N 51°19' E 003°50'0 0.0
2017-Jun-18 06:00N 51°19' E 003°50'0 0.0
2017-Jun-18 05:30N 51°19' E 003°50'0 0.0
2017-Jun-18 05:00N 51°19' E 003°50'0 0.0
2017-Jun-18 04:30N 51°19' E 003°50'0 0.0
2017-Jun-18 04:00N 51°19' E 003°50'0 0.0
2017-Jun-18 03:30N 51°19' E 003°50'0 0.0
2017-Jun-18 03:00N 51°19' E 003°50'0 0.0
2017-Jun-18 02:30N 51°19' E 003°50'0 0.0
2017-Jun-18 02:00N 51°19' E 003°50'0 0.0
2017-Jun-18 01:30N 51°19' E 003°50'0 0.0
2017-Jun-18 01:00N 51°19' E 003°50'0 0.0
2017-Jun-18 00:30N 51°19' E 003°50'0 0.0
2017-Jun-18 00:00N 51°19' E 003°50'0 0.0
2017-Jun-17 23:30N 51°19' E 003°50'0 0.0
2017-Jun-17 23:00N 51°19' E 003°50'0 0.0
2017-Jun-17 22:30N 51°19' E 003°50'0 0.0
2017-Jun-17 22:00N 51°19' E 003°50'0 0.0
2017-Jun-17 21:30N 51°19' E 003°50'0 0.0
2017-Jun-17 21:00N 51°19' E 003°50'0 0.0
2017-Jun-17 20:30N 51°19' E 003°50'0 0.0
2017-Jun-17 20:00N 51°19' E 003°50'0 0.0
2017-Jun-17 19:30N 51°19' E 003°50'0 0.0
2017-Jun-17 19:00N 51°19' E 003°50'0 0.0
2017-Jun-17 18:30N 51°19' E 003°50'0 0.0
2017-Jun-17 18:00N 51°19' E 003°50'0 0.0
2017-Jun-17 17:30N 51°19' E 003°50'0 0.0
2017-Jun-17 17:00N 51°19' E 003°50'0 0.0
2017-Jun-17 16:30N 51°19' E 003°50'0 0.0
2017-Jun-17 16:00N 51°19' E 003°50'0 0.0
2017-Jun-17 15:30N 51°19' E 003°50'0 0.0
2017-Jun-17 15:00N 51°19' E 003°50'0 0.0
2017-Jun-17 14:30N 51°19' E 003°50'0 0.0
2017-Jun-17 13:30N 51°19' E 003°50'0 0.0
2017-Jun-17 13:00N 51°19' E 003°50'0 0.0
2017-Jun-17 12:30N 51°19' E 003°50'0 0.0
2017-Jun-17 12:00N 51°19' E 003°50'0 0.0
2017-Jun-17 11:30N 51°19' E 003°50'0 0.0
2017-Jun-17 11:00N 51°19' E 003°50'0 0.0
2017-Jun-17 10:30N 51°19' E 003°50'0 0.0
2017-Jun-17 10:00N 51°19' E 003°50'0 0.0
2017-Jun-17 09:30N 51°19' E 003°50'0 0.0
2017-Jun-17 09:00N 51°19' E 003°50'0 0.0
2017-Jun-17 08:30N 51°19' E 003°50'0 0.0
2017-Jun-17 08:00N 51°19' E 003°50'0 0.0
2017-Jun-17 07:30N 51°19' E 003°50'0 0.0
2017-Jun-17 07:00N 51°19' E 003°50'0 0.0
2017-Jun-17 06:30N 51°19' E 003°50'0 0.0
2017-Jun-17 06:00N 51°19' E 003°50'0 0.0
2017-Jun-17 05:30N 51°19' E 003°50'0 0.0
2017-Jun-17 05:00N 51°19' E 003°50'0 0.0
2017-Jun-17 04:30N 51°19' E 003°50'0 0.0
2017-Jun-17 04:00N 51°19' E 003°50'0 0.0
2017-Jun-17 03:30N 51°19' E 003°50'0 0.0
2017-Jun-17 03:00N 51°19' E 003°50'0 0.0
2017-Jun-17 02:30N 51°19' E 003°50'0 0.0
2017-Jun-17 02:00N 51°19' E 003°50'0 0.0
2017-Jun-17 01:30N 51°19' E 003°50'0 0.0
2017-Jun-17 01:00N 51°19' E 003°50'0 0.0
2017-Jun-17 00:30N 51°19' E 003°50'0 0.0
2017-Jun-17 00:00N 51°19' E 003°50'0 0.0
2017-Jun-16 23:30N 51°19' E 003°50'0 0.7
2017-Jun-16 23:00N 51°20' E 003°49'1 2.8
2017-Jun-16 22:30N 51°21' E 003°48'510.0
2017-Jun-16 22:00N 51°24' E 003°42'510.0
2017-Jun-16 21:30N 51°26' E 003°34'5 9.4
2017-Jun-16 21:00N 51°30' E 003°29'5 9.5
2017-Jun-16 20:31N 51°33' E 003°25'510.6
2017-Jun-16 20:00N 51°38' E 003°21'510.6
2017-Jun-16 19:31N 51°43' E 003°18'510.8
2017-Jun-16 19:00N 51°48' E 003°17'510.4
2017-Jun-16 18:30N 51°53' E 003°18'510.1
2017-Jun-16 18:00N 51°58' E 003°20'510.8
2017-Jun-16 17:30N 52°03' E 003°25'1017.8
2017-Jun-16 16:58N 52°03' E 003°41'0 0.0
2017-Jun-16 16:30N 52°03' E 003°41'4 8.1
2017-Jun-16 16:00N 52°02' E 003°47'510.7
2017-Jun-16 15:31N 52°01' E 003°56'510.9
2017-Jun-16 15:01N 51°59' E 004°04'1111.4
2017-Jun-16 14:01N 51°54' E 004°20'2 3.7
2017-Jun-16 13:30N 51°54' E 004°23'0 0.0
2017-Jun-16 13:00N 51°54' E 004°23'0 0.0
2017-Jun-16 12:30N 51°54' E 004°23'0 0.2
2017-Jun-16 12:00N 51°54' E 004°23'1 1.1
2017-Jun-16 11:30N 51°54' E 004°23'0 0.8
2017-Jun-16 11:00N 51°54' E 004°23'0 0.0
2017-Jun-16 10:30N 51°54' E 004°23'0 0.0
2017-Jun-16 10:00N 51°54' E 004°23'0 0.0
2017-Jun-16 09:30N 51°54' E 004°23'0 0.0
2017-Jun-16 09:00N 51°54' E 004°23'0 0.0
2017-Jun-16 08:30N 51°54' E 004°23'0 0.0
2017-Jun-16 08:00N 51°54' E 004°23'0 0.0
2017-Jun-16 07:30N 51°54' E 004°23'  

Dump ship's entire track history